Time;durP1;ratioP1;P1;durP2;ratioP2;P2;SDS_P1;SDS_P2;PMS_P1;PMS_P2;Temp;Humidity;BMP_temperature;BMP_pressure;BME280_temperature;BME280_humidity;BME280_pressure;Samples;Min_cycle;Max_cycle;Signal;HPM_P1;HPM_P2
2022/09/28 00:02:07;;;;;;;;;;;8.60;99.90;;;;;;5074196;28;19915;-61
2022/09/28 00:04:32;;;;;;;;;;;8.50;99.90;;;;;;5074415;28;19916;-61
2022/09/28 00:06:58;;;;;;;;;;;8.60;99.90;;;;;;5074093;28;19908;-61
2022/09/28 00:09:24;;;;;;;;;;;8.60;99.90;;;;;;5074325;28;19915;-61
2022/09/28 00:11:51;;;;;;;;;;;8.60;99.90;;;;;;5074279;28;20291;-61
2022/09/28 00:14:17;;;;;;;;;;;8.60;99.90;;;;;;5074232;28;19912;-61
2022/09/28 00:16:42;;;;;;;;;;;8.60;99.90;;;;;;5074150;28;20431;-61
2022/09/28 00:19:09;;;;;;;;;;;8.60;99.90;;;;;;5073910;28;20370;-61
2022/09/28 00:21:36;;;;;;;;;;;8.70;99.90;;;;;;5073900;28;20328;-60
2022/09/28 00:24:18;;;;;;;;;;;8.60;99.90;;;;;;5074172;28;20417;-61
2022/09/28 00:26:45;;;;;;;;;;;8.60;99.90;;;;;;5074091;28;19909;-62
2022/09/28 00:29:15;;;;;;;;;;;8.70;99.90;;;;;;5074092;28;20034;-60
2022/09/28 00:31:41;;;;;;;;;;;8.60;99.90;;;;;;5073797;28;19909;-61
2022/09/28 00:34:06;;;;;;;;;;;8.70;99.90;;;;;;5073727;28;19947;-61
2022/09/28 00:36:32;;;;;;;;;;;8.60;99.90;;;;;;5074039;28;19912;-61
2022/09/28 00:38:58;;;;;;;;;;;8.60;99.90;;;;;;5073954;28;19920;-61
2022/09/28 00:41:25;;;;;;;;;;;8.70;99.90;;;;;;5073906;28;19915;-62
2022/09/28 00:43:51;;;;;;;;;;;8.70;99.90;;;;;;5073634;28;19946;-61
2022/09/28 00:46:20;;;;;;;;;;;8.70;99.90;;;;;;5073878;28;20374;-60
2022/09/28 00:48:49;;;;;;;;;;;8.80;99.90;;;;;;5073815;28;20377;-61
2022/09/28 00:51:15;;;;;;;;;;;8.70;99.90;;;;;;5073817;28;19932;-61
2022/09/28 00:53:42;;;;;;;;;;;8.70;99.90;;;;;;5073778;28;19908;-61
2022/09/28 00:56:10;;;;;;;;;;;8.70;99.90;;;;;;5073500;28;20374;-61
2022/09/28 00:58:39;;;;;;;;;;;8.70;99.90;;;;;;5073276;28;19980;-61
2022/09/28 01:01:04;;;;;;;;;;;8.60;99.90;;;;;;5073743;28;20367;-61
2022/09/28 01:03:31;;;;;;;;;;;8.60;99.90;;;;;;5073411;28;19915;-61
2022/09/28 01:05:57;;;;;;;;;;;8.60;99.90;;;;;;5073705;28;20011;-61
2022/09/28 01:08:26;;;;;;;;;;;8.60;99.90;;;;;;5073638;28;20424;-61
2022/09/28 01:10:52;;;;;;;;;;;8.60;99.90;;;;;;5073384;28;19962;-61
2022/09/28 01:13:18;;;;;;;;;;;8.60;99.90;;;;;;5073362;28;20429;-62
2022/09/28 01:16:06;;;;;;;;;;;8.60;99.90;;;;;;5073360;28;20011;-61
2022/09/28 01:18:52;;;;;;;;;;;8.60;99.90;;;;;;5073266;28;19912;-62
2022/09/28 01:21:19;;;;;;;;;;;8.60;99.90;;;;;;5073164;28;19931;-61
2022/09/28 01:24:04;;;;;;;;;;;8.60;99.90;;;;;;5073298;28;19999;-61
2022/09/28 01:26:44;;;;;;;;;;;8.60;99.90;;;;;;5073484;28;19908;-61
2022/09/28 01:29:23;;;;;;;;;;;8.60;99.90;;;;;;5073457;28;19908;-60
2022/09/28 01:31:51;;;;;;;;;;;8.60;99.90;;;;;;5073184;28;20003;-61
2022/09/28 01:34:22;;;;;;;;;;;8.60;99.90;;;;;;5073413;28;20325;-61
2022/09/28 01:36:49;;;;;;;;;;;8.60;99.90;;;;;;5073347;28;19946;-61
2022/09/28 01:39:25;;;;;;;;;;;8.60;99.90;;;;;;5073114;28;19908;-62
2022/09/28 01:41:52;;;;;;;;;;;8.50;99.90;;;;;;5073359;28;19931;-61
2022/09/28 01:44:19;;;;;;;;;;;8.50;99.90;;;;;;5074787;28;19956;-61
2022/09/28 01:46:46;;;;;;;;;;;8.50;99.90;;;;;;5077109;28;20309;-62
2022/09/28 01:49:21;;;;;;;;;;;8.50;99.90;;;;;;5077012;28;20317;-62
2022/09/28 01:51:51;;;;;;;;;;;8.40;99.90;;;;;;5076787;28;19962;-61
2022/09/28 01:54:20;;;;;;;;;;;8.40;99.90;;;;;;5076938;28;20377;-61
2022/09/28 01:56:50;;;;;;;;;;;8.40;99.90;;;;;;5076323;28;19956;-61
2022/09/28 01:59:22;;;;;;;;;;;8.40;99.90;;;;;;5076577;28;19955;-61
2022/09/28 02:01:51;;;;;;;;;;;8.30;99.90;;;;;;5076816;28;20405;-61
2022/09/28 02:04:19;;;;;;;;;;;8.20;99.90;;;;;;5076718;28;19916;-61
2022/09/28 02:06:47;;;;;;;;;;;8.20;99.90;;;;;;5076701;28;19916;-61
2022/09/28 02:09:18;;;;;;;;;;;8.10;99.90;;;;;;5076420;28;20359;-61
2022/09/28 02:11:46;;;;;;;;;;;8.10;99.90;;;;;;5076572;28;19913;-61
2022/09/28 02:14:14;;;;;;;;;;;8.10;99.90;;;;;;5076575;28;20419;-62
2022/09/28 02:16:41;;;;;;;;;;;8.00;99.90;;;;;;5076436;28;19909;-62
2022/09/28 02:19:09;;;;;;;;;;;8.00;99.90;;;;;;5076203;28;19913;-61
2022/09/28 02:21:57;;;;;;;;;;;7.90;99.90;;;;;;5076465;28;20264;-62
2022/09/28 02:24:42;;;;;;;;;;;7.90;99.90;;;;;;5076406;28;20363;-62
2022/09/28 02:27:12;;;;;;;;;;;7.80;99.90;;;;;;5075910;28;19955;-62
2022/09/28 02:29:38;;;;;;;;;;;7.80;99.90;;;;;;5076073;28;19908;-61
2022/09/28 02:32:03;;;;;;;;;;;7.80;99.90;;;;;;5075978;28;20012;-61
2022/09/28 02:34:29;;;;;;;;;;;7.80;99.90;;;;;;5058099;28;19909;-61
2022/09/28 02:36:54;;;;;;;;;;;7.70;99.90;;;;;;5075857;28;19948;-62
2022/09/28 02:39:20;;;;;;;;;;;7.70;99.90;;;;;;5076178;28;19909;-61
2022/09/28 02:42:00;;;;;;;;;;;7.70;99.90;;;;;;5076067;28;19962;-61
2022/09/28 02:47:24;;;;;;;;;;;7.70;99.90;;;;;;5071083;28;19913;-60
2022/09/28 02:49:59;;;;;;;;;;;7.60;99.90;;;;;;5071225;28;19913;-60
2022/09/28 02:52:38;;;;;;;;;;;7.60;99.90;;;;;;5071164;28;19909;-60
2022/09/28 02:55:16;;;;;;;;;;;7.60;99.90;;;;;;5071093;28;19909;-60
2022/09/28 02:57:49;;;;;;;;;;;7.60;99.90;;;;;;5071079;28;20375;-60
2022/09/28 03:00:17;;;;;;;;;;;7.70;99.90;;;;;;5070982;28;19908;-60
2022/09/28 03:02:57;;;;;;;;;;;7.70;99.90;;;;;;5070959;28;19908;-60
2022/09/28 03:05:30;;;;;;;;;;;7.70;99.90;;;;;;5070598;28;19912;-60
2022/09/28 03:08:00;;;;;;;;;;;7.80;99.90;;;;;;5070882;28;19920;-60
2022/09/28 03:10:32;;;;;;;;;;;7.80;99.90;;;;;;5070803;28;20371;-60
2022/09/28 03:12:58;;;;;;;;;;;7.90;99.90;;;;;;5070715;28;20428;-60
2022/09/28 03:15:25;;;;;;;;;;;7.90;99.90;;;;;;5070673;28;19909;-61
2022/09/28 03:17:51;;;;;;;;;;;7.90;99.90;;;;;;5070679;28;20387;-61
2022/09/28 03:20:17;;;;;;;;;;;7.80;99.90;;;;;;5070372;28;19959;-60
2022/09/28 03:22:42;;;;;;;;;;;7.80;99.90;;;;;;5070546;28;20003;-61
2022/09/28 03:25:09;;;;;;;;;;;7.80;99.90;;;;;;5070164;28;19999;-61
2022/09/28 03:27:34;;;;;;;;;;;7.80;99.90;;;;;;5070437;28;19909;-61
2022/09/28 03:30:00;;;;;;;;;;;7.90;99.90;;;;;;5070112;28;19909;-61
2022/09/28 03:32:25;;;;;;;;;;;7.90;99.90;;;;;;5070052;28;19944;-60
2022/09/28 03:34:51;;;;;;;;;;;7.90;99.90;;;;;;5069963;28;19975;-60
2022/09/28 03:37:16;;;;;;;;;;;7.90;99.90;;;;;;5070232;28;19913;-60
2022/09/28 03:39:42;;;;;;;;;;;7.90;99.90;;;;;;5070166;28;19996;-60
2022/09/28 03:42:07;;;;;;;;;;;7.80;99.90;;;;;;5070098;28;20432;-61
2022/09/28 03:44:33;;;;;;;;;;;7.80;99.90;;;;;;5070107;28;19915;-61
2022/09/28 03:46:58;;;;;;;;;;;7.80;99.90;;;;;;5088036;28;20413;-61
2022/09/28 03:49:24;;;;;;;;;;;7.90;99.90;;;;;;5090061;28;19909;-60
2022/09/28 03:51:49;;;;;;;;;;;7.90;99.90;;;;;;5090193;28;19908;-61
2022/09/28 03:54:14;;;;;;;;;;;7.90;99.90;;;;;;5089868;28;19916;-61
2022/09/28 03:56:40;;;;;;;;;;;7.90;99.90;;;;;;5087160;28;19909;-61
2022/09/28 03:59:05;;;;;;;;;;;7.90;99.90;;;;;;5076334;28;20379;-60
2022/09/28 04:01:31;;;;;;;;;;;7.90;99.90;;;;;;5076322;28;19909;-61
2022/09/28 04:03:57;;;;;;;;;;;7.90;99.90;;;;;;5076512;28;20291;-60
2022/09/28 04:06:23;;;;;;;;;;;7.90;99.90;;;;;;5076388;28;20302;-61
2022/09/28 04:08:48;;;;;;;;;;;7.90;99.90;;;;;;5076424;28;19916;-61
2022/09/28 04:11:14;;;;;;;;;;;7.90;99.90;;;;;;5076087;28;19913;-61
2022/09/28 04:13:40;;;;;;;;;;;7.90;99.90;;;;;;5058184;28;19909;-61
2022/09/28 04:16:05;;;;;;;;;;;7.90;99.90;;;;;;5076270;28;19966;-61
2022/09/28 04:18:31;;;;;;;;;;;7.90;99.90;;;;;;5076260;28;19908;-61
2022/09/28 04:21:03;;;;;;;;;;;7.80;99.90;;;;;;5076179;28;19915;-60
2022/09/28 04:23:29;;;;;;;;;;;7.80;99.90;;;;;;5076180;28;19944;-60
2022/09/28 04:25:54;;;;;;;;;;;7.80;99.90;;;;;;5076043;28;19962;-60
2022/09/28 04:31:09;;;;;;;;;;;7.80;99.90;;;;;;5075557;28;19966;-60
2022/09/28 04:33:35;;;;;;;;;;;7.80;99.90;;;;;;5075972;28;19908;-60
2022/09/28 04:36:00;;;;;;;;;;;7.80;99.90;;;;;;5075670;28;19908;-61
2022/09/28 04:38:26;;;;;;;;;;;7.80;99.90;;;;;;5075856;28;19915;-60
2022/09/28 04:40:51;;;;;;;;;;;7.80;99.90;;;;;;5075827;28;20307;-60
2022/09/28 04:43:17;;;;;;;;;;;7.80;99.90;;;;;;5075527;28;19908;-59
2022/09/28 04:45:42;;;;;;;;;;;7.90;99.90;;;;;;5075349;28;20395;-61
2022/09/28 04:48:08;;;;;;;;;;;7.80;99.90;;;;;;5075431;28;20001;-60
2022/09/28 04:50:33;;;;;;;;;;;7.80;99.90;;;;;;5075383;28;20014;-60
2022/09/28 04:53:00;;;;;;;;;;;7.90;99.90;;;;;;5075573;28;19914;-60
2022/09/28 04:55:31;;;;;;;;;;;7.90;99.90;;;;;;5075552;28;20003;-60
2022/09/28 04:57:59;;;;;;;;;;;7.90;99.90;;;;;;5057322;28;19916;-60
2022/09/28 05:00:25;;;;;;;;;;;7.90;99.90;;;;;;5075424;28;19908;-60
2022/09/28 05:02:50;;;;;;;;;;;7.90;99.90;;;;;;5075145;28;19908;-60
2022/09/28 05:05:16;;;;;;;;;;;7.90;99.90;;;;;;5074981;28;20011;-60
2022/09/28 05:07:42;;;;;;;;;;;8.00;99.90;;;;;;5075336;28;19916;-60
2022/09/28 05:10:07;;;;;;;;;;;8.00;99.90;;;;;;5074249;28;19909;-60
2022/09/28 05:12:33;;;;;;;;;;;8.00;99.90;;;;;;5075201;28;20393;-60
2022/09/28 05:14:59;;;;;;;;;;;8.00;99.90;;;;;;5057153;28;20334;-61
2022/09/28 05:17:24;;;;;;;;;;;8.00;99.90;;;;;;5075103;28;19920;-60
2022/09/28 05:19:50;;;;;;;;;;;8.00;99.90;;;;;;5057031;28;20263;-60
2022/09/28 05:22:15;;;;;;;;;;;8.00;99.90;;;;;;5074718;28;19912;-60
2022/09/28 05:24:41;;;;;;;;;;;8.00;99.90;;;;;;5074697;28;19912;-61
2022/09/28 05:27:07;;;;;;;;;;;8.00;99.90;;;;;;5074827;28;19920;-60
2022/09/28 05:29:32;;;;;;;;;;;8.00;99.90;;;;;;5074832;28;20271;-60
2022/09/28 05:32:00;;;;;;;;;;;8.00;99.90;;;;;;5074493;28;19908;-60
2022/09/28 05:34:25;;;;;;;;;;;8.00;99.90;;;;;;5074726;28;19913;-60
2022/09/28 05:36:51;;;;;;;;;;;8.00;99.90;;;;;;5074469;28;19915;-60
2022/09/28 05:39:16;;;;;;;;;;;8.00;99.90;;;;;;5074419;28;19910;-60
2022/09/28 05:41:42;;;;;;;;;;;8.00;99.90;;;;;;5074609;28;19956;-60
2022/09/28 05:44:07;;;;;;;;;;;8.00;99.90;;;;;;5074527;28;19909;-60
2022/09/28 05:46:32;;;;;;;;;;;8.00;99.90;;;;;;5074058;28;20007;-62
2022/09/28 05:48:59;;;;;;;;;;;8.00;99.90;;;;;;5074158;28;19916;-61
2022/09/28 05:51:25;;;;;;;;;;;8.00;99.90;;;;;;5074275;28;20308;-60
2022/09/28 05:53:52;;;;;;;;;;;8.00;99.90;;;;;;5074293;28;19909;-61
2022/09/28 05:56:18;;;;;;;;;;;8.00;99.90;;;;;;5071444;28;19909;-61
2022/09/28 05:58:43;;;;;;;;;;;8.00;99.90;;;;;;5069760;28;19920;-62
2022/09/28 06:01:09;;;;;;;;;;;8.10;99.90;;;;;;5065128;28;19912;-63
2022/09/28 06:03:34;;;;;;;;;;;8.00;99.90;;;;;;5059907;28;19919;-60
2022/09/28 06:06:01;;;;;;;;;;;8.20;99.90;;;;;;5062166;28;19956;-61
2022/09/28 06:08:26;;;;;;;;;;;8.10;99.90;;;;;;5072902;28;19909;-61
2022/09/28 06:10:52;;;;;;;;;;;8.10;99.90;;;;;;5068998;28;19912;-61
2022/09/28 06:13:17;;;;;;;;;;;8.10;99.90;;;;;;5073709;28;19939;-61
2022/09/28 06:15:45;;;;;;;;;;;8.10;99.90;;;;;;5071353;28;19912;-61
2022/09/28 06:18:13;;;;;;;;;;;8.10;99.90;;;;;;5070325;28;19952;-61
2022/09/28 06:20:40;;;;;;;;;;;8.10;99.90;;;;;;5066397;28;19959;-61
2022/09/28 06:23:06;;;;;;;;;;;8.10;99.90;;;;;;5072245;28;19917;-61
2022/09/28 06:25:32;;;;;;;;;;;8.10;99.90;;;;;;5073496;28;19920;-61
2022/09/28 06:27:58;;;;;;;;;;;8.20;99.90;;;;;;5070704;28;20359;-61
2022/09/28 06:30:25;;;;;;;;;;;8.20;99.90;;;;;;5073066;28;19923;-62
2022/09/28 06:32:52;;;;;;;;;;;8.20;99.90;;;;;;5073007;28;20003;-61
2022/09/28 06:35:18;;;;;;;;;;;8.30;99.90;;;;;;5073525;28;19909;-61
2022/09/28 06:37:44;;;;;;;;;;;8.30;99.90;;;;;;5070894;28;19913;-61
2022/09/28 06:40:09;;;;;;;;;;;8.30;99.90;;;;;;5069401;28;20393;-61
2022/09/28 06:42:35;;;;;;;;;;;8.30;99.90;;;;;;5072969;28;19912;-61
2022/09/28 06:45:00;;;;;;;;;;;8.40;99.90;;;;;;5072400;28;19912;-61
2022/09/28 06:47:25;;;;;;;;;;;8.50;99.90;;;;;;5068046;28;19916;-61
2022/09/28 06:49:54;;;;;;;;;;;8.60;99.90;;;;;;5069853;28;19915;-61
2022/09/28 06:52:19;;;;;;;;;;;8.60;99.90;;;;;;5073187;28;20294;-61
2022/09/28 06:54:45;;;;;;;;;;;8.60;99.90;;;;;;5071134;28;19923;-61
2022/09/28 06:57:10;;;;;;;;;;;8.70;99.90;;;;;;5068431;28;19909;-61
2022/09/28 06:59:36;;;;;;;;;;;8.70;99.90;;;;;;5053145;28;19990;-62
2022/09/28 07:02:01;;;;;;;;;;;8.80;99.90;;;;;;5068333;28;20294;-61
2022/09/28 07:04:27;;;;;;;;;;;8.90;99.90;;;;;;5072676;28;19954;-59
2022/09/28 07:06:53;;;;;;;;;;;8.80;99.90;;;;;;5073217;28;19913;-60
2022/09/28 07:09:18;;;;;;;;;;;8.80;99.90;;;;;;5068507;28;19913;-60
2022/09/28 07:11:44;;;;;;;;;;;8.90;99.90;;;;;;5039210;28;20409;-60
2022/09/28 07:14:11;;;;;;;;;;;8.80;99.90;;;;;;5057058;28;20371;-61
2022/09/28 07:16:37;;;;;;;;;;;8.80;99.90;;;;;;5071593;28;19913;-60
2022/09/28 07:19:03;;;;;;;;;;;8.80;99.90;;;;;;5069359;28;19924;-60
2022/09/28 07:21:28;;;;;;;;;;;8.90;99.90;;;;;;5070005;28;20346;-60
2022/09/28 07:23:54;;;;;;;;;;;8.80;99.90;;;;;;5072532;28;19913;-60
2022/09/28 07:26:20;;;;;;;;;;;8.90;99.90;;;;;;5066719;28;20287;-60
2022/09/28 07:28:45;;;;;;;;;;;8.80;99.90;;;;;;5056334;28;19912;-62
2022/09/28 07:31:11;;;;;;;;;;;8.90;99.90;;;;;;5070302;28;19995;-61
2022/09/28 07:33:36;;;;;;;;;;;8.90;99.90;;;;;;5075815;28;19908;-61
2022/09/28 07:36:06;;;;;;;;;;;9.00;99.90;;;;;;5074588;28;19916;-62
2022/09/28 07:38:32;;;;;;;;;;;9.00;99.90;;;;;;5067361;28;19909;-61
2022/09/28 07:41:20;;;;;;;;;;;9.00;99.90;;;;;;5056552;28;19912;-61
2022/09/28 07:43:45;;;;;;;;;;;9.00;99.90;;;;;;5069339;28;19962;-60
2022/09/28 07:46:11;;;;;;;;;;;9.10;99.90;;;;;;5068415;28;19925;-61
2022/09/28 07:48:38;;;;;;;;;;;9.00;99.90;;;;;;5058284;28;19920;-61
2022/09/28 07:51:03;;;;;;;;;;;9.10;99.90;;;;;;5055061;28;19916;-61
2022/09/28 07:53:29;;;;;;;;;;;9.10;99.90;;;;;;5055562;28;19908;-61
2022/09/28 07:55:56;;;;;;;;;;;9.20;99.90;;;;;;5075609;28;19912;-61
2022/09/28 07:58:21;;;;;;;;;;;9.10;99.90;;;;;;5075740;28;19912;-62
2022/09/28 08:00:47;;;;;;;;;;;9.10;99.90;;;;;;5075674;28;19908;-61
2022/09/28 08:03:14;;;;;;;;;;;9.20;99.90;;;;;;5075826;28;20379;-61
2022/09/28 08:05:41;;;;;;;;;;;9.20;99.90;;;;;;5075657;28;20359;-60
2022/09/28 08:08:07;;;;;;;;;;;9.20;99.90;;;;;;5076177;28;19915;-61
2022/09/28 08:10:33;;;;;;;;;;;9.20;99.90;;;;;;5058020;28;19909;-61
2022/09/28 08:13:02;;;;;;;;;;;9.30;99.90;;;;;;5075851;28;20228;-61
2022/09/28 08:15:28;;;;;;;;;;;9.40;99.90;;;;;;5075694;28;20016;-61
2022/09/28 08:17:54;;;;;;;;;;;9.40;99.90;;;;;;5075900;28;19959;-61
2022/09/28 08:23:06;;;;;;;;;;;9.40;99.90;;;;;;5075625;28;19915;-61
2022/09/28 08:25:31;;;;;;;;;;;9.50;99.90;;;;;;5075084;28;19923;-61
2022/09/28 08:27:57;;;;;;;;;;;9.40;99.90;;;;;;5075987;28;19912;-61
2022/09/28 08:30:22;;;;;;;;;;;9.50;99.90;;;;;;5075569;28;19913;-61
2022/09/28 08:32:48;;;;;;;;;;;9.50;99.90;;;;;;5075699;28;19972;-61
2022/09/28 08:35:14;;;;;;;;;;;9.70;99.90;;;;;;5075158;28;19909;-61
2022/09/28 08:37:39;;;;;;;;;;;9.50;99.90;;;;;;5075066;28;19912;-61
2022/09/28 08:40:11;;;;;;;;;;;9.70;99.90;;;;;;5075535;28;19974;-62
2022/09/28 08:42:40;;;;;;;;;;;9.90;99.90;;;;;;5065368;28;19967;-61
2022/09/28 08:45:10;;;;;;;;;;;10.00;99.90;;;;;;5073833;28;20007;-61
2022/09/28 08:50:46;;;;;;;;;;;10.30;99.90;;;;;;5074090;28;19912;-61
2022/09/28 08:53:19;;;;;;;;;;;10.50;99.90;;;;;;5074741;28;19966;-61
2022/09/28 08:55:45;;;;;;;;;;;10.60;99.90;;;;;;5074913;28;19912;-61
2022/09/28 08:58:17;;;;;;;;;;;10.50;99.90;;;;;;5074676;28;20295;-61
2022/09/28 09:00:50;;;;;;;;;;;10.30;99.90;;;;;;5075148;28;19909;-61
2022/09/28 09:03:18;;;;;;;;;;;10.40;99.90;;;;;;5074782;28;20423;-62
2022/09/28 09:05:54;;;;;;;;;;;10.60;99.90;;;;;;5067560;28;20009;-61
2022/09/28 09:08:26;;;;;;;;;;;10.60;99.90;;;;;;5055037;28;20280;-61
2022/09/28 09:10:56;;;;;;;;;;;10.50;99.90;;;;;;5054760;28;20424;-61
2022/09/28 09:13:43;;;;;;;;;;;10.60;99.90;;;;;;5067212;28;19912;-61
2022/09/28 09:16:28;;;;;;;;;;;10.70;99.90;;;;;;5073998;28;19909;-61
2022/09/28 09:18:58;;;;;;;;;;;10.80;99.90;;;;;;5074514;28;19909;-61
2022/09/28 09:21:34;;;;;;;;;;;10.70;99.90;;;;;;5074858;28;20418;-61
2022/09/28 09:24:03;;;;;;;;;;;11.10;99.90;;;;;;5058994;28;19913;-60
2022/09/28 09:26:34;;;;;;;;;;;11.30;99.90;;;;;;5074133;28;19967;-61
2022/09/28 09:29:19;;;;;;;;;;;11.30;99.90;;;;;;5056288;28;19908;-61
2022/09/28 09:34:50;;;;;;;;;;;11.20;99.90;;;;;;5070591;28;19913;-60
2022/09/28 09:37:25;;;;;;;;;;;11.00;99.90;;;;;;5070692;28;19912;-60
2022/09/28 09:40:10;;;;;;;;;;;10.90;99.90;;;;;;5086400;28;19936;-60
2022/09/28 09:42:44;;;;;;;;;;;11.10;99.90;;;;;;5070019;28;19913;-61
2022/09/28 09:45:29;;;;;;;;;;;11.20;99.90;;;;;;5070488;28;20393;-60
2022/09/28 09:47:59;;;;;;;;;;;11.50;99.90;;;;;;5070391;28;20402;-60
2022/09/28 09:50:29;;;;;;;;;;;11.80;99.90;;;;;;5070295;28;19948;-60
2022/09/28 09:52:59;;;;;;;;;;;11.70;99.90;;;;;;5069820;28;19917;-60
2022/09/28 09:55:28;;;;;;;;;;;11.60;99.90;;;;;;5070281;28;20359;-60
2022/09/28 09:57:58;;;;;;;;;;;11.80;99.90;;;;;;5068881;28;20394;-60
2022/09/28 10:00:24;;;;;;;;;;;11.70;99.90;;;;;;5070574;28;19908;-62
2022/09/28 10:02:50;;;;;;;;;;;12.10;99.90;;;;;;5069825;28;20020;-62
2022/09/28 10:05:24;;;;;;;;;;;12.30;99.90;;;;;;5069931;28;19916;-59
2022/09/28 10:08:09;;;;;;;;;;;12.50;99.90;;;;;;5070000;28;20426;-60
2022/09/28 10:10:36;;;;;;;;;;;12.10;99.90;;;;;;5069735;28;19908;-59
2022/09/28 10:13:02;;;;;;;;;;;12.00;99.90;;;;;;5069288;28;19921;-60
2022/09/28 10:15:29;;;;;;;;;;;12.10;99.90;;;;;;5069836;28;19908;-60
2022/09/28 10:17:55;;;;;;;;;;;13.00;99.90;;;;;;5068308;28;19908;-61
2022/09/28 10:20:21;;;;;;;;;;;13.60;99.90;;;;;;5069739;28;19908;-61
2022/09/28 10:22:48;;;;;;;;;;;13.20;99.90;;;;;;5069413;28;19916;-60
2022/09/28 10:25:14;;;;;;;;;;;13.00;99.90;;;;;;5068174;28;19912;-60
2022/09/28 10:27:44;;;;;;;;;;;12.90;99.90;;;;;;5069860;28;19958;-61
2022/09/28 10:32:49;;;;;;;;;;;13.10;99.90;;;;;;5090569;27;19920;-60
2022/09/28 10:35:20;;;;;;;;;;;13.00;99.90;;;;;;5091007;28;20007;-60
2022/09/28 10:37:53;;;;;;;;;;;13.10;99.90;;;;;;5091091;28;19909;-61
2022/09/28 10:40:28;;;;;;;;;;;13.40;99.90;;;;;;5088915;28;19934;-61
2022/09/28 10:43:14;;;;;;;;;;;14.50;99.90;;;;;;5090675;28;20306;-61
2022/09/28 10:45:39;;;;;;;;;;;13.50;99.90;;;;;;5090549;28;19912;-61
2022/09/28 10:48:12;;;;;;;;;;;12.80;99.90;;;;;;5090340;28;20267;-61
2022/09/28 10:50:38;;;;;;;;;;;12.50;99.90;;;;;;5090527;28;19917;-60
2022/09/28 10:53:19;;;;;;;;;;;12.80;99.90;;;;;;5089759;28;19909;-62
2022/09/28 10:55:55;;;;;;;;;;;13.60;99.90;;;;;;5090002;28;19912;-62
2022/09/28 10:58:25;;;;;;;;;;;13.80;99.90;;;;;;5090549;28;19955;-60
2022/09/28 11:00:51;;;;;;;;;;;13.80;99.90;;;;;;5090621;28;20014;-60
2022/09/28 11:03:19;;;;;;;;;;;13.50;99.90;;;;;;5089677;28;20362;-60
2022/09/28 11:05:53;;;;;;;;;;;13.30;99.90;;;;;;5089320;28;19912;-60
2022/09/28 11:08:22;;;;;;;;;;;13.30;99.90;;;;;;5088957;28;19951;-60
2022/09/28 11:10:59;;;;;;;;;;;13.30;99.90;;;;;;5090063;28;19923;-61
2022/09/28 11:13:26;;;;;;;;;;;13.40;99.90;;;;;;5090028;28;20468;-60
2022/09/28 11:15:51;;;;;;;;;;;13.50;99.90;;;;;;5089710;28;19952;-61
2022/09/28 11:18:21;;;;;;;;;;;12.90;99.90;;;;;;5088600;28;20004;-60
2022/09/28 11:20:48;;;;;;;;;;;12.90;99.90;;;;;;5086288;28;19908;-60
2022/09/28 11:23:16;;;;;;;;;;;12.60;99.90;;;;;;5087023;28;19920;-61
2022/09/28 11:25:42;;;;;;;;;;;12.50;99.90;;;;;;5088771;28;19934;-64
2022/09/28 11:28:17;;;;;;;;;;;12.40;99.90;;;;;;5089176;28;20479;-64
2022/09/28 11:30:51;;;;;;;;;;;12.40;99.90;;;;;;5092115;28;20364;-64
2022/09/28 11:33:22;;;;;;;;;;;12.80;99.90;;;;;;5108157;28;19927;-64
2022/09/28 11:36:07;;;;;;;;;;;12.70;99.90;;;;;;5109992;28;19915;-64
2022/09/28 11:38:53;;;;;;;;;;;12.90;99.90;;;;;;5109817;28;20286;-64
2022/09/28 11:41:27;;;;;;;;;;;12.90;99.90;;;;;;5108878;28;19987;-64
2022/09/28 11:43:59;;;;;;;;;;;12.80;99.90;;;;;;5096356;28;19916;-64
2022/09/28 11:49:18;;;;;;;;;;;13.20;99.90;;;;;;5090244;27;19926;-64
2022/09/28 11:51:44;;;;;;;;;;;13.70;99.90;;;;;;5090151;28;19913;-64
2022/09/28 11:54:15;;;;;;;;;;;13.70;99.90;;;;;;5090264;28;20277;-64
2022/09/28 11:56:44;;;;;;;;;;;13.80;99.90;;;;;;5090082;28;19958;-64
2022/09/28 11:59:12;;;;;;;;;;;13.80;99.90;;;;;;5089250;28;19916;-64
2022/09/28 12:01:40;;;;;;;;;;;13.60;99.90;;;;;;5090531;28;19931;-64
2022/09/28 12:04:26;;;;;;;;;;;13.30;99.90;;;;;;5090563;28;20363;-64
2022/09/28 12:06:56;;;;;;;;;;;13.10;99.90;;;;;;5090278;28;19963;-64
2022/09/28 12:09:27;;;;;;;;;;;13.20;99.90;;;;;;5077240;28;19909;-64
2022/09/28 12:11:56;;;;;;;;;;;13.60;99.90;;;;;;5083246;28;20008;-64
2022/09/28 12:14:31;;;;;;;;;;;14.00;99.90;;;;;;5086902;28;20367;-64
2022/09/28 12:17:16;;;;;;;;;;;13.90;99.90;;;;;;5087327;28;20366;-65
2022/09/28 12:20:00;;;;;;;;;;;13.90;99.90;;;;;;5090194;28;20370;-64
2022/09/28 12:22:32;;;;;;;;;;;14.40;99.90;;;;;;5089800;28;19909;-63
2022/09/28 12:24:58;;;;;;;;;;;14.30;99.90;;;;;;5089917;28;19909;-64
2022/09/28 12:27:28;;;;;;;;;;;14.00;99.90;;;;;;5083875;28;19927;-63
2022/09/28 12:30:00;;;;;;;;;;;14.30;99.90;;;;;;5086129;28;20438;-64
2022/09/28 12:32:37;;;;;;;;;;;14.30;99.90;;;;;;5081985;28;19999;-63
2022/09/28 12:35:09;;;;;;;;;;;14.30;99.90;;;;;;5089834;28;19912;-64
2022/09/28 12:37:44;;;;;;;;;;;14.30;99.90;;;;;;5089718;28;19972;-64
2022/09/28 12:40:19;;;;;;;;;;;14.20;99.90;;;;;;5089745;28;19919;-64
2022/09/28 12:42:58;;;;;;;;;;;14.20;99.90;;;;;;5090143;28;19942;-64
2022/09/28 12:45:31;;;;;;;;;;;14.00;99.90;;;;;;5089815;28;20370;-64
2022/09/28 12:50:40;;;;;;;;;;;14.00;99.90;;;;;;5070435;28;19923;-64
2022/09/28 12:53:26;;;;;;;;;;;14.40;99.90;;;;;;5070497;28;19961;-65
2022/09/28 12:56:12;;;;;;;;;;;14.30;99.90;;;;;;5059115;28;19909;-64
2022/09/28 12:58:47;;;;;;;;;;;14.40;99.90;;;;;;5069780;28;19995;-64
2022/09/28 13:01:34;;;;;;;;;;;14.30;99.90;;;;;;5070664;28;20371;-64
2022/09/28 13:04:19;;;;;;;;;;;13.90;99.90;;;;;;5068373;28;20330;-65
2022/09/28 13:07:03;;;;;;;;;;;14.10;99.90;;;;;;5060188;28;20367;-64
2022/09/28 13:09:36;;;;;;;;;;;14.30;99.90;;;;;;5070027;28;19917;-64
2022/09/28 13:12:22;;;;;;;;;;;14.20;99.90;;;;;;5066863;28;20011;-63
2022/09/28 13:15:02;;;;;;;;;;;14.40;99.90;;;;;;5062773;28;19915;-64
2022/09/28 13:17:47;;;;;;;;;;;14.80;99.90;;;;;;5069665;28;19913;-64
2022/09/28 13:20:26;;;;;;;;;;;15.20;99.90;;;;;;5068477;28;20367;-64
2022/09/28 13:22:55;;;;;;;;;;;14.60;99.90;;;;;;5065056;28;20468;-64
2022/09/28 13:25:22;;;;;;;;;;;14.40;99.90;;;;;;5065320;28;19913;-65
2022/09/28 13:27:54;;;;;;;;;;;14.40;99.90;;;;;;5069711;28;19923;-64
2022/09/28 13:30:19;;;;;;;;;;;14.30;99.90;;;;;;5067680;28;19924;-64
2022/09/28 13:32:45;;;;;;;;;;;14.20;99.90;;;;;;5062237;28;19909;-64
2022/09/28 13:35:18;;;;;;;;;;;14.10;99.90;;;;;;5050035;28;20363;-64
2022/09/28 13:37:44;;;;;;;;;;;14.00;99.90;;;;;;5049680;28;19916;-65
2022/09/28 13:40:10;;;;;;;;;;;13.70;99.90;;;;;;5055672;28;20337;-65
2022/09/28 13:42:55;;;;;;;;;;;13.40;99.90;;;;;;5063098;28;20000;-65
2022/09/28 13:45:24;;;;;;;;;;;13.50;99.90;;;;;;5053605;28;19916;-65
2022/09/28 13:47:53;;;;;;;;;;;13.40;99.90;;;;;;5048517;28;19909;-66
2022/09/28 13:50:22;;;;;;;;;;;13.40;99.90;;;;;;5067161;28;19921;-66
2022/09/28 13:52:56;;;;;;;;;;;13.20;99.90;;;;;;5088248;28;20434;-66
2022/09/28 13:55:41;;;;;;;;;;;13.10;99.90;;;;;;5089945;28;19908;-65
2022/09/28 13:58:19;;;;;;;;;;;13.10;99.90;;;;;;5089451;28;20363;-66
2022/09/28 14:00:50;;;;;;;;;;;13.00;99.90;;;;;;5082643;28;20003;-65
2022/09/28 14:03:35;;;;;;;;;;;13.00;99.90;;;;;;5076317;28;19962;-63
2022/09/28 14:06:03;;;;;;;;;;;12.80;99.90;;;;;;5061331;28;19909;-64
2022/09/28 14:08:49;;;;;;;;;;;12.70;99.90;;;;;;5060633;28;20374;-64
2022/09/28 14:11:34;;;;;;;;;;;12.70;99.90;;;;;;5075861;28;19908;-63
2022/09/28 14:14:01;;;;;;;;;;;12.70;99.90;;;;;;5075588;28;19909;-64
2022/09/28 14:16:30;;;;;;;;;;;12.80;99.90;;;;;;5069559;28;19924;-65
2022/09/28 14:19:16;;;;;;;;;;;12.90;99.90;;;;;;5056176;28;20371;-65
2022/09/28 14:22:01;;;;;;;;;;;13.00;99.90;;;;;;5054709;28;20379;-65
2022/09/28 14:24:33;;;;;;;;;;;13.00;99.90;;;;;;5054825;28;20371;-64
2022/09/28 14:27:09;;;;;;;;;;;13.10;99.90;;;;;;5071597;28;20445;-62
2022/09/28 14:29:37;;;;;;;;;;;13.20;99.90;;;;;;5075965;28;20367;-62
2022/09/28 14:32:04;;;;;;;;;;;13.00;99.90;;;;;;5076000;28;20362;-62
2022/09/28 14:34:33;;;;;;;;;;;13.10;99.90;;;;;;5076037;28;19915;-62
2022/09/28 14:42:31;;;;;;;;;;;12.90;99.90;;;;;;5075445;28;19908;-61
2022/09/28 14:45:06;;;;;;;;;;;13.00;99.90;;;;;;5075865;28;19916;-61
2022/09/28 14:50:28;;;;;;;;;;;13.00;99.90;;;;;;5071108;28;19919;-61
2022/09/28 14:52:55;;;;;;;;;;;13.20;99.90;;;;;;5070861;28;19917;-61
2022/09/28 14:55:26;;;;;;;;;;;13.10;99.90;;;;;;5071063;28;19915;-61
2022/09/28 14:57:54;;;;;;;;;;;13.10;99.90;;;;;;5071095;28;19915;-61
2022/09/28 15:00:21;;;;;;;;;;;13.30;99.90;;;;;;5070919;28;20390;-61
2022/09/28 15:02:48;;;;;;;;;;;13.40;99.90;;;;;;5070857;28;20367;-61
2022/09/28 15:05:17;;;;;;;;;;;13.30;99.90;;;;;;5086491;28;20291;-61
2022/09/28 15:07:46;;;;;;;;;;;13.30;99.90;;;;;;5070834;28;19909;-61
2022/09/28 15:10:31;;;;;;;;;;;13.40;99.90;;;;;;5071056;28;20353;-61